Time;durP1;ratioP1;P1;durP2;ratioP2;P2;SDS_P1;SDS_P2;PMS_P1;PMS_P2;Temp;Humidity;BMP_temperature;BMP_pressure;BME280_temperature;BME280_humidity;BME280_pressure;Samples;Min_cycle;Max_cycle;Signal;HPM_P1;HPM_P2
2021/12/19 00:00:38;;;;;;;12.07;4.45;;;;;;;6.13;100.00;103569.56;5075299;28;20470;-69
2021/12/19 00:09:02;;;;;;;11.70;4.68;;;;;;;6.13;100.00;103567.78;5075869;28;20039;-67
2021/12/19 00:11:23;;;;;;;12.63;4.78;;;;;;;6.13;100.00;103565.13;5074145;28;20068;-69
2021/12/19 00:13:49;;;;;;;10.18;3.92;;;;;;;6.13;100.00;103565.13;5075531;28;20029;-67
2021/12/19 00:16:15;;;;;;;10.43;4.47;;;;;;;6.12;100.00;103559.91;5074807;28;20028;-70
2021/12/19 00:18:43;;;;;;;14.02;5.85;;;;;;;6.13;100.00;103558.97;5073944;28;20039;-70
2021/12/19 00:21:11;;;;;;;10.00;4.25;;;;;;;6.12;100.00;103557.28;5075398;28;20025;-70
2021/12/19 00:23:37;;;;;;;11.57;4.43;;;;;;;6.07;100.00;103549.63;5075441;28;20031;-69
2021/12/19 00:26:03;;;;;;;12.88;4.70;;;;;;;6.08;100.00;103546.03;5074294;28;20031;-67
2021/12/19 00:28:29;;;;;;;14.75;5.13;;;;;;;6.08;100.00;103550.50;5075355;28;20033;-70
2021/12/19 00:30:54;;;;;;;12.93;5.25;;;;;;;6.04;100.00;103548.97;5074537;28;20486;-68
2021/12/19 00:33:20;;;;;;;13.10;5.40;;;;;;;6.08;100.00;103550.50;5075075;28;20038;-68
2021/12/19 00:35:45;;;;;;;16.52;5.28;;;;;;;6.08;100.00;103553.97;5075180;28;20020;-68
2021/12/19 00:38:10;;;;;;;16.58;5.70;;;;;;;6.07;100.00;103552.25;5075134;28;20119;-68
2021/12/19 00:40:37;;;;;;;19.13;7.40;;;;;;;6.06;100.00;103555.03;5074949;28;20025;-68
2021/12/19 00:43:10;;;;;;;19.35;7.95;;;;;;;6.01;100.00;103543.88;5075020;28;20028;-67
2021/12/19 00:45:40;;;;;;;17.92;7.75;;;;;;;6.02;100.00;103543.75;5074945;28;20033;-67
2021/12/19 00:48:07;;;;;;;17.70;6.55;;;;;;;6.01;100.00;103542.06;5074684;28;20028;-68
2021/12/19 00:50:34;;;;;;;20.92;7.57;;;;;;;6.02;100.00;103542.91;5074578;28;20035;-68
2021/12/19 00:53:00;;;;;;;20.15;6.97;;;;;;;6.01;100.00;103533.28;5074546;28;20078;-67
2021/12/19 00:55:27;;;;;;;23.15;8.60;;;;;;;5.99;100.00;103530.72;5074772;28;20054;-69
2021/12/19 00:57:54;;;;;;;21.33;7.50;;;;;;;5.99;100.00;103532.53;5074788;28;20485;-68
2021/12/19 01:00:22;;;;;;;23.90;8.07;;;;;;;5.99;100.00;103540.47;5074493;28;20082;-68
2021/12/19 01:02:51;;;;;;;21.02;6.85;;;;;;;6.00;100.00;103537.75;5074427;28;20494;-68
2021/12/19 01:05:17;;;;;;;20.95;7.82;;;;;;;5.93;100.00;103523.16;5074689;28;20028;-69
2021/12/19 01:07:43;;;;;;;25.80;9.38;;;;;;;5.96;100.00;103532.72;5074571;28;20013;-67
2021/12/19 01:10:09;;;;;;;23.63;9.38;;;;;;;5.94;100.00;103532.81;5074499;28;20097;-67
2021/12/19 01:12:38;;;;;;;24.83;10.77;;;;;;;5.90;100.00;103526.00;5074446;28;20032;-69
2021/12/19 01:15:05;;;;;;;27.50;11.77;;;;;;;5.84;100.00;103527.25;5074354;28;20031;-69
2021/12/19 01:17:31;;;;;;;24.52;8.25;;;;;;;5.87;100.00;103531.50;5074296;28;20033;-70
2021/12/19 01:19:56;;;;;;;22.67;9.25;;;;;;;5.77;100.00;103517.16;5073577;28;20032;-67
2021/12/19 01:22:21;;;;;;;19.60;7.07;;;;;;;5.83;100.00;103527.34;5072906;28;20028;-69
2021/12/19 01:24:47;;;;;;;19.65;6.85;;;;;;;5.81;100.00;103526.59;5074128;28;20024;-70
2021/12/19 01:27:12;;;;;;;20.90;5.85;;;;;;;5.71;100.00;103513.97;5074271;28;20094;-68
2021/12/19 01:29:38;;;;;;;20.52;7.13;;;;;;;5.76;100.00;103523.38;5074126;28;20025;-68
2021/12/19 01:32:03;;;;;;;19.63;6.90;;;;;;;5.73;100.00;103521.78;5073904;28;20055;-68
2021/12/19 01:34:29;;;;;;;21.85;8.10;;;;;;;5.72;100.00;103517.44;5073759;28;20040;-68
2021/12/19 01:36:54;;;;;;;20.42;7.93;;;;;;;5.75;100.00;103514.59;5073987;28;20028;-67
2021/12/19 01:39:19;;;;;;;27.30;8.52;;;;;;;5.75;100.00;103509.31;5073793;28;20713;-68
2021/12/19 01:41:51;;;;;;;21.77;7.95;;;;;;;5.75;100.00;103508.47;5072794;28;20064;-68
2021/12/19 01:44:17;;;;;;;22.67;7.82;;;;;;;5.77;100.00;103515.34;5073874;28;20025;-68
2021/12/19 01:46:44;;;;;;;25.58;10.68;;;;;;;5.77;100.00;103517.16;5073835;28;20074;-68
2021/12/19 01:49:11;;;;;;;23.08;9.20;;;;;;;5.74;100.00;103507.63;5073505;28;20442;-68
2021/12/19 01:51:37;;;;;;;30.42;9.32;;;;;;;5.68;100.00;103503.53;5073578;28;20052;-68
2021/12/19 01:54:03;;;;;;;25.17;9.32;;;;;;;5.71;100.00;103506.03;5073598;28;20399;-68
2021/12/19 01:56:29;;;;;;;27.20;7.60;;;;;;;5.70;100.00;103504.31;5073608;28;20104;-68
2021/12/19 01:58:54;;;;;;;36.85;9.27;;;;;;;5.70;100.00;103506.94;5073589;28;20107;-68
2021/12/19 02:01:19;;;;;;;24.52;8.82;;;;;;;5.69;100.00;103501.78;5073385;28;20025;-68
2021/12/19 02:03:45;;;;;;;30.42;10.18;;;;;;;5.69;100.00;103507.06;5071804;28;20663;-68
2021/12/19 02:06:10;;;;;;;25.38;8.32;;;;;;;5.66;100.00;103500.16;5073439;28;20028;-68
2021/12/19 02:08:35;;;;;;;21.67;6.93;;;;;;;5.62;100.00;103501.31;5073371;28;20051;-68
2021/12/19 02:11:01;;;;;;;25.73;9.18;;;;;;;5.59;100.00;103493.56;5073299;28;20024;-67
2021/12/19 02:13:27;;;;;;;19.23;5.80;;;;;;;5.54;100.00;103494.81;5073341;28;20119;-68
2021/12/19 02:15:52;;;;;;;23.88;8.55;;;;;;;5.55;100.00;103491.19;5073216;28;20052;-67
2021/12/19 02:18:23;;;;;;;25.60;7.90;;;;;;;5.52;100.00;103500.19;5072051;28;20032;-67
2021/12/19 02:20:52;;;;;;;27.65;10.60;;;;;;;5.48;100.00;103498.69;5073107;28;20025;-67
2021/12/19 02:23:20;;;;;;;21.83;7.43;;;;;;;5.46;100.00;103493.50;5073274;28;20590;-67
2021/12/19 02:25:46;;;;;;;22.80;8.23;;;;;;;5.45;100.00;103493.59;5072932;28;20605;-68
2021/12/19 02:28:12;;;;;;;24.42;9.45;;;;;;;5.39;100.00;103475.44;5072670;28;20028;-67
2021/12/19 02:30:38;;;;;;;24.10;10.88;;;;;;;5.38;100.00;103474.59;5071758;28;20031;-70
2021/12/19 02:33:12;;;;;;;23.15;8.23;;;;;;;5.38;100.00;103484.34;5073027;28;20047;-68
2021/12/19 02:35:37;;;;;;;26.50;10.27;;;;;;;5.29;100.00;103469.88;5073082;28;20353;-67
2021/12/19 02:48:29;;;;;;;24.45;9.18;;;;;;;5.31;100.00;103480.38;5073214;28;20146;-67
2021/12/19 02:50:55;;;;;;;29.77;9.75;;;;;;;5.27;100.00;103472.66;5072605;28;20032;-68
2021/12/19 02:53:35;;;;;;;27.63;10.63;;;;;;;5.26;100.00;103464.78;5071052;28;20040;-67
2021/12/19 02:56:03;;;;;;;28.15;10.93;;;;;;;5.24;100.00;103467.56;5072743;28;20025;-68
2021/12/19 02:58:29;;;;;;;28.98;11.80;;;;;;;5.24;100.00;103469.34;5072667;28;20021;-68
2021/12/19 03:00:56;;;;;;;28.92;12.20;;;;;;;5.22;100.00;103477.38;5072735;28;20060;-68
2021/12/19 03:03:21;;;;;;;30.73;12.35;;;;;;;5.22;100.00;103463.31;5072482;28;20112;-68
2021/12/19 03:05:46;;;;;;;27.15;11.18;;;;;;;5.22;100.00;103468.59;5072281;28;20543;-68
2021/12/19 03:08:12;;;;;;;34.22;14.80;;;;;;;5.22;100.00;103450.06;5072254;28;20028;-67
2021/12/19 03:18:41;;;;;;;34.20;12.80;;;;;;;5.16;100.00;103451.31;5072617;28;20110;-67
2021/12/19 03:21:11;;;;;;;31.20;12.45;;;;;;;5.13;100.00;103438.25;5072509;28;20426;-68
2021/12/19 03:23:37;;;;;;;26.70;11.10;;;;;;;5.10;100.00;103435.81;5072551;28;20020;-68
2021/12/19 03:26:02;;;;;;;30.98;11.40;;;;;;;5.09;100.00;103434.13;5072526;28;20137;-68
2021/12/19 03:28:27;;;;;;;33.50;12.90;;;;;;;5.09;100.00;103444.72;5072437;28;20029;-68
2021/12/19 03:30:53;;;;;;;29.67;11.65;;;;;;;5.07;100.00;103432.53;5072157;28;20024;-68
2021/12/19 03:33:19;;;;;;;29.83;10.55;;;;;;;4.98;100.00;103421.59;5070764;28;20028;-68
2021/12/19 03:35:45;;;;;;;28.98;10.95;;;;;;;5.07;100.00;103436.00;5072391;28;20032;-68
2021/12/19 03:38:12;;;;;;;32.78;12.70;;;;;;;5.07;100.00;103430.72;5072450;28;20041;-67
2021/12/19 03:40:40;;;;;;;30.98;12.05;;;;;;;5.10;100.00;103424.38;5072394;28;20090;-68
2021/12/19 03:43:07;;;;;;;32.92;11.05;;;;;;;5.11;100.00;103431.38;5072151;28;20052;-67
2021/12/19 03:45:34;;;;;;;36.30;13.15;;;;;;;5.10;100.00;103422.59;5072034;28;20024;-67
2021/12/19 03:48:00;;;;;;;34.53;13.70;;;;;;;5.08;100.00;103410.41;5072110;28;20391;-67
2021/12/19 03:50:26;;;;;;;32.35;12.48;;;;;;;5.06;100.00;103418.47;5072322;28;20020;-67
2021/12/19 03:52:53;;;;;;;37.13;11.88;;;;;;;5.05;100.00;103428.16;5072101;28;20033;-67
2021/12/19 03:55:21;;;;;;;35.08;13.13;;;;;;;5.02;100.00;103415.13;5072346;28;20028;-67
2021/12/19 03:57:47;;;;;;;35.42;12.38;;;;;;;5.05;100.00;103427.31;5072200;28;20028;-68
2021/12/19 04:00:15;;;;;;;36.38;11.55;;;;;;;5.05;100.00;103422.88;5072143;28;20027;-67
2021/12/19 04:02:41;;;;;;;30.95;12.95;;;;;;;5.05;100.00;103420.22;5071950;28;20032;-67
2021/12/19 04:05:07;;;;;;;36.40;12.40;;;;;;;5.07;100.00;103421.94;5072625;28;20035;-67
2021/12/19 04:07:32;;;;;;;28.17;9.50;;;;;;;5.06;100.00;103415.81;5075648;28;20036;-67
2021/12/19 04:09:58;;;;;;;26.27;10.20;;;;;;;4.94;100.00;103400.72;5074218;28;20025;-67
2021/12/19 04:12:27;;;;;;;20.90;8.00;;;;;;;4.96;100.00;103404.94;5075510;28;20164;-67
2021/12/19 04:14:52;;;;;;;17.63;4.82;;;;;;;4.86;100.00;103380.03;5075546;28;20033;-67
2021/12/19 04:17:18;;;;;;;11.05;3.58;;;;;;;4.90;100.00;103394.78;5075337;28;20422;-68
2021/12/19 04:19:43;;;;;;;12.07;4.05;;;;;;;4.88;100.00;103386.06;5075279;28;20028;-67
2021/12/19 04:22:09;;;;;;;11.00;3.72;;;;;;;4.87;100.00;103378.22;5075414;28;20118;-68
2021/12/19 04:24:34;;;;;;;7.90;3.33;;;;;;;4.89;100.00;103373.69;5075426;28;20395;-67
2021/12/19 04:27:00;;;;;;;14.50;5.22;;;;;;;4.87;100.00;103373.78;5075343;28;20479;-68
2021/12/19 04:29:26;;;;;;;10.50;4.13;;;;;;;4.88;100.00;103364.94;5075263;28;20043;-68
2021/12/19 04:31:53;;;;;;;10.90;4.18;;;;;;;4.92;100.00;103361.13;5075171;28;20424;-67
2021/12/19 04:34:18;;;;;;;12.93;3.85;;;;;;;4.94;100.00;103359.25;5075215;28;20463;-68
2021/12/19 04:36:47;;;;;;;12.82;3.45;;;;;;;4.94;100.00;103347.81;5075206;28;20028;-70
2021/12/19 05:02:32;;;;;;;9.40;3.63;;;;;;;4.94;100.00;103334.59;5074679;28;20037;-68
2021/12/19 05:15:45;;;;;;;7.70;2.20;;;;;;;4.92;100.00;103331.19;5074545;28;20040;-68
2021/12/19 05:18:10;;;;;;;11.10;3.03;;;;;;;4.94;100.00;103335.44;5074289;28;20021;-68
2021/12/19 05:20:38;;;;;;;10.55;2.45;;;;;;;4.88;100.00;103324.41;5074260;28;20102;-68
2021/12/19 05:23:12;;;;;;;9.68;2.67;;;;;;;4.95;100.00;103333.63;5074236;28;20029;-68
2021/12/19 05:25:37;;;;;;;7.78;2.88;;;;;;;4.89;100.00;103328.75;5074172;28;20032;-68
2021/12/19 05:28:03;;;;;;;11.10;2.67;;;;;;;4.91;100.00;103330.34;5074257;28;20024;-68
2021/12/19 05:30:29;;;;;;;8.43;2.90;;;;;;;4.93;100.00;103333.75;5074164;28;20029;-68
2021/12/19 05:32:55;;;;;;;6.90;2.03;;;;;;;4.93;100.00;103333.75;5056291;28;20536;-68
2021/12/19 05:35:48;;;;;;;6.28;2.15;;;;;;;4.92;100.00;103333.84;5074016;28;20037;-68
2021/12/19 05:46:22;;;;;;;5.47;2.08;;;;;;;4.90;100.00;103315.44;5073004;28;20083;-68
2021/12/19 05:48:47;;;;;;;7.95;3.15;;;;;;;4.92;100.00;103307.41;5073824;28;20029;-68
2021/12/19 05:51:13;;;;;;;6.07;2.20;;;;;;;4.91;100.00;103308.34;5072444;28;20029;-68
2021/12/19 05:53:38;;;;;;;11.40;2.80;;;;;;;4.89;100.00;103302.31;5073537;28;20032;-70
2021/12/19 05:56:04;;;;;;;8.38;3.53;;;;;;;4.86;100.00;103297.22;5073617;28;20043;-68
2021/12/19 05:58:29;;;;;;;10.40;4.82;;;;;;;4.88;100.00;103306.75;5072402;28;20442;-68
2021/12/19 06:00:55;;;;;;;10.20;3.15;;;;;;;4.89;100.00;103316.38;5073278;28;20032;-68
2021/12/19 06:03:20;;;;;;;9.63;2.28;;;;;;;4.91;100.00;103317.13;5073297;28;20024;-68
2021/12/19 06:05:45;;;;;;;8.13;2.50;;;;;;;4.92;100.00;103310.88;5071872;28;20044;-68
2021/12/19 06:08:11;;;;;;;5.13;2.60;;;;;;;4.93;100.00;103303.81;5072097;28;20032;-68
2021/12/19 06:10:36;;;;;;;6.35;2.33;;;;;;;4.91;100.00;103295.97;5072076;28;20377;-68
2021/12/19 06:13:01;;;;;;;9.70;2.70;;;;;;;4.93;100.00;103304.66;5073078;28;20158;-69
2021/12/19 06:15:27;;;;;;;10.30;2.47;;;;;;;4.95;100.00;103313.34;5073208;28;20021;-68
2021/12/19 06:17:53;;;;;;;10.82;3.75;;;;;;;4.95;100.00;103307.19;5073352;28;20471;-68
2021/12/19 06:20:18;;;;;;;10.20;3.22;;;;;;;4.96;100.00;103311.56;5073199;28;20519;-68
2021/12/19 06:22:44;;;;;;;8.77;2.45;;;;;;;4.95;100.00;103316.00;5073190;28;20476;-68
2021/12/19 06:25:10;;;;;;;10.10;2.70;;;;;;;4.95;100.00;103308.06;5073169;28;20036;-68
2021/12/19 06:27:35;;;;;;;10.90;3.20;;;;;;;4.94;100.00;103300.22;5072739;28;20020;-68
2021/12/19 06:30:01;;;;;;;10.35;3.75;;;;;;;4.97;100.00;103300.00;5072930;28;20024;-68
2021/12/19 06:32:26;;;;;;;9.60;2.92;;;;;;;4.97;100.00;103295.56;5072901;28;20032;-68
2021/12/19 06:34:52;;;;;;;11.20;3.17;;;;;;;4.95;100.00;103283.41;5073107;28;20464;-68
2021/12/19 06:37:17;;;;;;;9.23;3.00;;;;;;;5.01;100.00;103290.94;5071896;28;20029;-68
2021/12/19 06:39:43;;;;;;;7.85;3.10;;;;;;;4.99;100.00;103280.47;5072966;28;20025;-68
2021/12/19 06:42:09;;;;;;;10.07;2.47;;;;;;;4.98;100.00;103283.22;5071714;28;20056;-69
2021/12/19 06:44:36;;;;;;;11.65;3.08;;;;;;;5.02;100.00;103282.06;5072954;28;20078;-68
2021/12/19 06:47:03;;;;;;;11.00;2.67;;;;;;;4.97;100.00;103278.84;5072990;28;20459;-68
2021/12/19 06:49:28;;;;;;;10.90;3.17;;;;;;;5.03;100.00;103276.69;5072938;28;20032;-68
2021/12/19 06:51:54;;;;;;;9.38;2.95;;;;;;;5.03;100.00;103271.38;5072926;28;20034;-68
2021/12/19 06:54:20;;;;;;;8.05;2.72;;;;;;;5.04;100.00;103257.19;5072608;28;20433;-68
2021/12/19 06:56:45;;;;;;;10.30;3.45;;;;;;;5.05;100.00;103256.25;5072733;28;20069;-68
2021/12/19 06:59:10;;;;;;;8.80;2.78;;;;;;;5.08;100.00;103259.63;5072749;28;20043;-68
2021/12/19 07:01:37;;;;;;;10.20;3.25;;;;;;;5.03;100.00;103252.00;5072642;28;20680;-68
2021/12/19 07:04:02;;;;;;;11.40;3.47;;;;;;;5.03;100.00;103250.22;5072980;28;20067;-68
2021/12/19 07:06:27;;;;;;;9.75;2.65;;;;;;;5.09;100.00;103259.56;5072678;28;20048;-68
2021/12/19 07:08:53;;;;;;;6.75;2.67;;;;;;;5.10;100.00;103263.88;5072650;28;20025;-68
2021/12/19 07:11:18;;;;;;;10.65;2.80;;;;;;;5.10;100.00;103250.66;5072155;28;20028;-68
2021/12/19 07:13:44;;;;;;;10.40;2.42;;;;;;;5.09;100.00;103253.41;5072388;28;20024;-68
2021/12/19 07:16:09;;;;;;;10.32;2.90;;;;;;;5.12;100.00;103261.16;5071195;28;20445;-68
2021/12/19 07:18:36;;;;;;;12.20;3.70;;;;;;;5.12;100.00;103259.34;5072609;28;20028;-68
2021/12/19 07:21:03;;;;;;;9.50;3.10;;;;;;;5.10;100.00;103252.47;5072583;28;20075;-68
2021/12/19 07:23:30;;;;;;;8.65;2.58;;;;;;;5.13;100.00;103260.19;5072607;28;20463;-68
2021/12/19 07:25:56;;;;;;;11.52;3.67;;;;;;;5.07;100.00;103248.22;5072501;28;20036;-68
2021/12/19 07:28:21;;;;;;;12.95;4.18;;;;;;;5.17;100.00;103264.34;5072386;28;20028;-68
2021/12/19 07:30:47;;;;;;;12.57;3.22;;;;;;;5.16;100.00;103258.22;5070740;28;20067;-69
2021/12/19 07:33:12;;;;;;;10.63;3.65;;;;;;;5.20;100.00;103254.38;5069577;28;20063;-68
2021/12/19 07:35:41;;;;;;;11.30;3.63;;;;;;;5.20;100.00;103257.03;5069650;28;20033;-69
2021/12/19 07:38:09;;;;;;;14.25;3.85;;;;;;;5.22;100.00;103249.00;5088084;28;20074;-69
2021/12/19 07:40:36;;;;;;;10.40;2.92;;;;;;;5.25;100.00;103236.41;5091611;28;20026;-68
2021/12/19 07:43:10;;;;;;;8.20;3.42;;;;;;;5.28;100.00;103238.84;5092245;28;20521;-68
2021/12/19 07:45:37;;;;;;;13.02;4.20;;;;;;;5.29;100.00;103237.03;5092676;28;20032;-68
2021/12/19 07:48:04;;;;;;;12.65;3.15;;;;;;;5.31;100.00;103235.16;5092479;28;20028;-68
2021/12/19 07:50:30;;;;;;;11.05;3.63;;;;;;;5.32;100.00;103238.63;5092342;28;20028;-68
2021/12/19 07:52:55;;;;;;;13.35;3.17;;;;;;;5.35;100.00;103231.34;5072972;28;20468;-70
2021/12/19 07:55:22;;;;;;;11.70;3.55;;;;;;;5.37;100.00;103232.09;5072755;28;20035;-70
2021/12/19 07:57:47;;;;;;;12.93;3.72;;;;;;;5.39;100.00;103232.84;5072780;28;20139;-70
2021/12/19 08:00:14;;;;;;;13.13;3.60;;;;;;;5.42;100.00;103224.72;5072760;28;20027;-68
2021/12/19 08:02:42;;;;;;;15.55;4.65;;;;;;;5.43;100.00;103217.63;5072846;28;20036;-67
2021/12/19 08:05:08;;;;;;;13.20;3.80;;;;;;;5.46;100.00;103230.63;5092110;28;20502;-70
2021/12/19 08:07:33;;;;;;;15.88;6.25;;;;;;;5.47;100.00;103219.91;5092278;28;20032;-68
2021/12/19 08:10:14;;;;;;;14.25;4.63;;;;;;;5.46;100.00;103222.69;5092063;28;20032;-69
2021/12/19 08:12:41;;;;;;;10.63;3.47;;;;;;;5.49;100.00;103220.66;5091615;28;20430;-69
2021/12/19 08:15:08;;;;;;;12.93;4.55;;;;;;;5.52;100.00;103214.31;5091698;28;20024;-69
2021/12/19 08:17:34;;;;;;;13.98;4.93;;;;;;;5.55;100.00;103214.09;5091890;28;20387;-69
2021/12/19 08:20:00;;;;;;;15.25;4.63;;;;;;;5.58;100.00;103216.56;5095685;28;20035;-68
2021/12/19 08:22:27;;;;;;;15.95;4.60;;;;;;;5.59;100.00;103215.59;5095529;28;20032;-67
2021/12/19 08:24:52;;;;;;;16.13;5.60;;;;;;;5.62;100.00;103223.34;5095499;28;20364;-69
2021/12/19 08:27:18;;;;;;;25.77;7.55;;;;;;;5.62;100.00;103215.38;5095403;28;20027;-67
2021/12/19 08:29:43;;;;;;;18.15;5.55;;;;;;;5.64;100.00;103218.78;5095575;28;20024;-71
2021/12/19 08:32:09;;;;;;;14.27;5.53;;;;;;;5.65;100.00;103223.13;5095398;28;20075;-69
2021/12/19 08:34:35;;;;;;;14.43;4.75;;;;;;;5.68;100.00;103220.25;5095532;28;20052;-69
2021/12/19 08:37:02;;;;;;;14.85;5.20;;;;;;;5.71;100.00;103222.72;5095305;28;20356;-69
2021/12/19 08:39:28;;;;;;;17.85;6.38;;;;;;;5.74;100.00;103228.72;5093847;28;20032;-70
2021/12/19 08:41:54;;;;;;;16.63;5.65;;;;;;;5.68;100.00;103208.81;5095052;28;20048;-68
2021/12/19 08:44:19;;;;;;;14.88;4.40;;;;;;;5.70;100.00;103210.41;5095329;28;20373;-68
2021/12/19 08:46:45;;;;;;;13.68;5.32;;;;;;;5.76;100.00;103217.06;5095171;28;20463;-68
2021/12/19 08:49:11;;;;;;;13.27;5.13;;;;;;;5.76;100.00;103205.63;5095219;28;20067;-68
2021/12/19 08:51:37;;;;;;;15.45;5.85;;;;;;;5.80;100.00;103215.06;5094476;28;20099;-68
2021/12/19 08:54:04;;;;;;;15.27;4.85;;;;;;;5.81;100.00;103211.47;5095061;28;20474;-68
2021/12/19 08:56:30;;;;;;;13.00;5.53;;;;;;;5.85;100.00;103207.66;5094854;28;20035;-68
2021/12/19 08:58:55;;;;;;;14.07;6.15;;;;;;;5.85;100.00;103210.31;5094765;28;20028;-69
2021/12/19 09:01:21;;;;;;;14.68;5.07;;;;;;;5.83;100.00;103201.63;5094942;28;20387;-69
2021/12/19 09:03:46;;;;;;;16.25;5.30;;;;;;;5.87;100.00;103208.41;5094649;28;20036;-68
2021/12/19 09:06:12;;;;;;;14.55;4.70;;;;;;;5.88;100.00;103210.94;5094772;28;20478;-68
2021/12/19 09:08:37;;;;;;;8.75;3.67;;;;;;;5.89;100.00;103217.94;5094798;28;20433;-69
2021/12/19 09:11:03;;;;;;;12.00;3.92;;;;;;;5.83;100.00;103202.47;5094668;28;20035;-68
2021/12/19 09:13:29;;;;;;;13.90;4.90;;;;;;;5.86;100.00;103202.25;5094776;28;20035;-69
2021/12/19 09:15:55;;;;;;;11.68;4.68;;;;;;;5.90;100.00;103192.28;5094708;28;20024;-68
2021/12/19 09:18:21;;;;;;;15.43;4.25;;;;;;;5.93;100.00;103200.91;5094290;28;20020;-69
2021/12/19 09:20:47;;;;;;;12.00;4.72;;;;;;;5.96;100.00;103199.00;5092831;28;20035;-66
2021/12/19 09:23:13;;;;;;;15.30;4.72;;;;;;;5.98;100.00;103205.03;5093902;28;20078;-69
2021/12/19 09:25:39;;;;;;;13.18;4.25;;;;;;;6.01;100.00;103208.31;5092673;28;20028;-69
2021/12/19 09:28:05;;;;;;;16.70;5.15;;;;;;;6.04;100.00;103208.06;5093222;28;20035;-67
2021/12/19 09:30:31;;;;;;;12.90;5.13;;;;;;;6.08;100.00;103198.97;5093557;28;20028;-66
2021/12/19 09:32:56;;;;;;;10.43;3.78;;;;;;;6.09;100.00;103194.50;5094163;28;20039;-69
2021/12/19 09:35:22;;;;;;;11.60;3.63;;;;;;;6.17;100.00;103201.91;5094342;28;20056;-69
2021/12/19 09:37:48;;;;;;;9.25;3.22;;;;;;;6.18;100.00;103201.78;5094071;28;20024;-69
2021/12/19 09:40:19;;;;;;;8.18;3.55;;;;;;;6.20;100.00;103193.75;5092369;28;20028;-67
2021/12/19 09:42:49;;;;;;;9.35;4.13;;;;;;;6.24;100.00;103197.88;5094075;28;20519;-67
2021/12/19 09:45:16;;;;;;;8.57;3.13;;;;;;;6.27;100.00;103200.31;5094104;28;20024;-67
2021/12/19 09:47:42;;;;;;;8.70;2.90;;;;;;;6.27;100.00;103198.50;5093865;28;20032;-67
2021/12/19 09:50:09;;;;;;;9.43;3.35;;;;;;;6.28;100.00;103194.03;5092526;28;20028;-67
2021/12/19 09:52:35;;;;;;;8.48;2.78;;;;;;;6.32;100.00;103206.13;5093934;28;20035;-69
2021/12/19 09:55:02;;;;;;;5.80;1.92;;;;;;;6.31;100.00;103197.34;5093969;28;20114;-69
2021/12/19 09:57:27;;;;;;;2.83;1.27;;;;;;;6.36;100.00;103204.94;5093842;28;20060;-67
2021/12/19 09:59:53;;;;;;;3.55;2.13;;;;;;;6.38;100.00;103210.97;5093055;28;20059;-67
2021/12/19 10:02:19;;;;;;;4.95;1.52;;;;;;;6.41;100.00;103209.91;5093444;28;20471;-67
2021/12/19 10:04:45;;;;;;;1.38;0.75;;;;;;;6.41;100.00;103207.25;5093183;28;20023;-67
2021/12/19 10:07:23;;;;;;;1.90;1.25;;;;;;;6.47;100.00;103202.38;5093748;28;20471;-67
2021/12/19 10:10:11;;;;;;;3.97;1.67;;;;;;;6.51;100.00;103200.31;5093657;28;20050;-67
2021/12/19 10:12:48;;;;;;;4.63;1.63;;;;;;;6.57;100.00;103197.22;5093578;28;20016;-67
2021/12/19 10:15:14;;;;;;;3.72;1.63;;;;;;;6.63;100.00;103195.91;5093386;28;20479;-68
2021/12/19 10:17:40;;;;;;;5.47;1.77;;;;;;;6.64;100.00;103198.47;5093536;28;20036;-70
2021/12/19 10:20:16;;;;;;;4.35;1.48;;;;;;;6.64;100.00;103198.47;5093005;28;20433;-68
2021/12/19 10:22:47;;;;;;;4.72;1.50;;;;;;;6.62;100.00;103188.94;5092656;28;20391;-68
2021/12/19 10:25:18;;;;;;;3.50;1.40;;;;;;;6.68;100.00;103189.34;5092851;28;20024;-67
2021/12/19 10:28:04;;;;;;;4.38;1.08;;;;;;;6.69;100.00;103188.38;5092118;28;20430;-68
2021/12/19 10:30:31;;;;;;;3.67;1.30;;;;;;;6.69;100.00;103179.56;5093440;28;20020;-68
2021/12/19 10:33:00;;;;;;;2.55;1.20;;;;;;;6.68;99.86;103185.81;5093072;28;20044;-67
2021/12/19 10:35:33;;;;;;;3.72;1.27;;;;;;;6.67;99.76;103168.22;5092052;28;20020;-67
2021/12/19 10:38:00;;;;;;;2.75;1.17;;;;;;;6.65;99.20;103170.97;5093271;28;20020;-67
2021/12/19 10:40:26;;;;;;;3.70;1.55;;;;;;;6.65;99.30;103170.16;5093162;28;20082;-67
2021/12/19 10:43:00;;;;;;;3.03;1.00;;;;;;;6.66;98.77;103164.75;5093075;28;20044;-67
2021/12/19 10:45:51;;;;;;;4.90;1.85;;;;;;;6.70;97.84;103173.31;5093063;28;20032;-67
2021/12/19 10:48:27;;;;;;;4.00;2.58;;;;;;;6.67;97.54;103171.72;5088706;28;20016;-68
2021/12/19 10:51:05;;;;;;;11.25;4.60;;;;;;;6.70;97.09;103168.00;5088807;28;20471;-67
2021/12/19 10:53:35;;;;;;;5.70;2.58;;;;;;;6.70;96.86;103162.69;5087862;28;20043;-67
2021/12/19 10:56:05;;;;;;;10.63;3.80;;;;;;;6.69;97.29;103153.06;5089107;28;20113;-69
2021/12/19 10:58:42;;;;;;;4.53;1.65;;;;;;;6.74;96.82;103146.44;5088834;28;20027;-67
2021/12/19 11:01:16;;;;;;;9.02;3.08;;;;;;;6.72;97.13;103135.09;5085068;28;20028;-68
2021/12/19 11:03:44;;;;;;;2.60;0.98;;;;;;;6.79;97.28;103140.81;5084023;28;20029;-67
2021/12/19 11:06:15;;;;;;;19.23;6.68;;;;;;;6.70;96.82;103125.56;5086563;28;20028;-68
2021/12/19 11:08:42;;;;;;;4.07;1.50;;;;;;;6.72;96.98;103132.44;5087752;28;20467;-68
2021/12/19 11:11:08;;;;;;;3.80;2.05;;;;;;;6.70;96.78;103126.41;5088594;28;20076;-67
2021/12/19 11:13:34;;;;;;;2.88;1.30;;;;;;;6.69;97.11;103132.69;5088249;28;20035;-67
2021/12/19 11:15:59;;;;;;;4.07;2.15;;;;;;;6.67;97.25;103124.00;5091702;28;20094;-69
2021/12/19 11:18:25;;;;;;;3.72;1.42;;;;;;;6.69;97.32;103111.47;5090985;28;20467;-68
2021/12/19 11:20:52;;;;;;;2.70;1.42;;;;;;;6.76;97.71;103117.19;5092693;28;20049;-68
2021/12/19 11:23:17;;;;;;;3.47;1.65;;;;;;;6.83;97.45;103101.63;5091527;28;20065;-68
2021/12/19 11:25:43;;;;;;;2.97;1.27;;;;;;;6.89;97.48;103096.72;5091404;28;20036;-69
2021/12/19 11:28:10;;;;;;;3.17;1.20;;;;;;;6.92;96.82;103091.16;5091220;28;20024;-68
2021/12/19 11:30:36;;;;;;;5.18;1.83;;;;;;;6.87;97.48;103081.88;5091528;28;20024;-69
2021/12/19 11:33:39;;;;;;;4.93;3.50;;;;;;;6.90;97.43;103093.09;5092784;28;20035;-67
2021/12/19 11:36:07;;;;;;;12.73;4.07;;;;;;;6.81;97.79;103083.16;5087268;28;20396;-68
2021/12/19 11:38:36;;;;;;;2.17;1.20;;;;;;;6.85;98.39;103076.69;5091802;28;20016;-68
2021/12/19 11:41:11;;;;;;;3.10;1.25;;;;;;;6.90;98.25;103077.16;5092444;28;20119;-69
2021/12/19 11:43:38;;;;;;;2.15;1.40;;;;;;;6.94;96.91;103081.28;5092454;28;20551;-68
2021/12/19 11:46:12;;;;;;;2.55;1.45;;;;;;;6.92;96.99;103080.56;5092247;28;20417;-67
2021/12/19 11:48:38;;;;;;;2.33;1.35;;;;;;;6.87;96.52;103079.22;5092119;28;20028;-68
2021/12/19 11:51:16;;;;;;;2.20;1.00;;;;;;;6.78;97.18;103070.97;5092061;28;20073;-68
2021/12/19 11:53:43;;;;;;;4.22;2.28;;;;;;;6.80;97.55;103079.66;5090260;28;20012;-67
2021/12/19 11:56:19;;;;;;;7.05;2.60;;;;;;;6.79;96.94;103082.47;5092195;28;20087;-67
2021/12/19 11:58:52;;;;;;;8.77;3.30;;;;;;;6.74;96.87;103069.53;5092212;28;20376;-68
2021/12/19 12:01:34;;;;;;;4.85;1.90;;;;;;;6.73;97.31;103067.84;5092111;28;20093;-68
2021/12/19 12:04:03;;;;;;;8.18;3.17;;;;;;;6.72;97.44;103063.50;5091107;28;20035;-68
2021/12/19 12:06:42;;;;;;;4.53;1.67;;;;;;;6.72;97.77;103055.53;5092075;28;20039;-67
2021/12/19 12:09:21;;;;;;;4.43;1.83;;;;;;;6.77;97.13;103052.56;5092053;28;20061;-68
2021/12/19 12:11:59;;;;;;;8.50;3.13;;;;;;;6.81;97.09;103051.34;5091721;28;20024;-67
2021/12/19 12:14:28;;;;;;;5.35;2.15;;;;;;;6.77;97.05;103037.47;5090924;28;20012;-67
2021/12/19 12:17:01;;;;;;;6.60;2.33;;;;;;;6.80;97.27;103045.19;5091639;28;20045;-66
2021/12/19 12:19:43;;;;;;;4.00;1.80;;;;;;;6.79;96.97;103040.88;5091581;28;20026;-67
2021/12/19 12:22:36;;;;;;;;;;;;;;;6.79;97.57;103040.03;5091484;28;20403;-67
2021/12/19 12:25:05;;;;;;;;;;;;;;;6.77;97.86;103041.94;5091359;28;20514;-66
2021/12/19 12:27:40;;;;;;;2.65;1.35;;;;;;;6.69;98.07;103039.03;5089377;28;19908;-69
2021/12/19 12:30:18;;;;;;;4.32;1.40;;;;;;;6.70;98.58;103046.84;5091484;28;20027;-67